sensor_id;sensor_type;location;lat;lon;timestamp;P1;durP1;ratioP1;P2;durP2;ratioP2
8958;SDS011;4514;49.476;8.484;2023-04-25T00:01:02;2.70;;;2.50;;
8958;SDS011;4514;49.476;8.484;2023-04-25T00:03:29;2.88;;;2.65;;
8958;SDS011;4514;49.476;8.484;2023-04-25T00:05:55;2.83;;;2.63;;
8958;SDS011;4514;49.476;8.484;2023-04-25T00:08:21;3.78;;;2.72;;
8958;SDS011;4514;49.476;8.484;2023-04-25T00:10:52;3.30;;;3.10;;
8958;SDS011;4514;49.476;8.484;2023-04-25T00:13:17;3.13;;;2.80;;
8958;SDS011;4514;49.476;8.484;2023-04-25T00:15:43;3.03;;;2.83;;
8958;SDS011;4514;49.476;8.484;2023-04-25T00:18:09;2.78;;;2.58;;
8958;SDS011;4514;49.476;8.484;2023-04-25T00:20:39;2.97;;;2.78;;
8958;SDS011;4514;49.476;8.484;2023-04-25T00:23:05;3.60;;;2.90;;
8958;SDS011;4514;49.476;8.484;2023-04-25T00:25:33;2.83;;;2.63;;
8958;SDS011;4514;49.476;8.484;2023-04-25T00:27:59;2.83;;;2.63;;
8958;SDS011;4514;49.476;8.484;2023-04-25T00:30:27;3.80;;;2.60;;
8958;SDS011;4514;49.476;8.484;2023-04-25T00:32:52;2.78;;;2.58;;
8958;SDS011;4514;49.476;8.484;2023-04-25T00:35:22;2.80;;;2.60;;
8958;SDS011;4514;49.476;8.484;2023-04-25T00:37:50;3.00;;;2.80;;
8958;SDS011;4514;49.476;8.484;2023-04-25T00:40:24;3.08;;;2.88;;
8958;SDS011;4514;49.476;8.484;2023-04-25T00:42:52;3.17;;;2.90;;
8958;SDS011;4514;49.476;8.484;2023-04-25T00:45:18;2.83;;;2.63;;
8958;SDS011;4514;49.476;8.484;2023-04-25T00:47:48;3.10;;;2.90;;
8958;SDS011;4514;49.476;8.484;2023-04-25T00:50:16;2.83;;;2.60;;
8958;SDS011;4514;49.476;8.484;2023-04-25T00:52:42;3.17;;;2.92;;
8958;SDS011;4514;49.476;8.484;2023-04-25T00:55:09;3.13;;;2.83;;
8958;SDS011;4514;49.476;8.484;2023-04-25T00:57:35;2.75;;;2.55;;
8958;SDS011;4514;49.476;8.484;2023-04-25T01:00:01;3.58;;;3.15;;
8958;SDS011;4514;49.476;8.484;2023-04-25T01:02:27;3.40;;;3.10;;
8958;SDS011;4514;49.476;8.484;2023-04-25T01:04:52;3.20;;;2.97;;
8958;SDS011;4514;49.476;8.484;2023-04-25T01:07:18;3.00;;;2.78;;
8958;SDS011;4514;49.476;8.484;2023-04-25T01:09:43;3.17;;;2.97;;
8958;SDS011;4514;49.476;8.484;2023-04-25T01:12:09;3.25;;;2.90;;
8958;SDS011;4514;49.476;8.484;2023-04-25T01:14:36;3.00;;;2.80;;
8958;SDS011;4514;49.476;8.484;2023-04-25T01:17:04;2.97;;;2.78;;
8958;SDS011;4514;49.476;8.484;2023-04-25T01:19:30;3.25;;;3.05;;
8958;SDS011;4514;49.476;8.484;2023-04-25T01:21:56;3.58;;;2.80;;
8958;SDS011;4514;49.476;8.484;2023-04-25T01:24:22;3.00;;;2.80;;
8958;SDS011;4514;49.476;8.484;2023-04-25T01:26:47;3.42;;;3.13;;
8958;SDS011;4514;49.476;8.484;2023-04-25T01:29:17;3.58;;;3.28;;
8958;SDS011;4514;49.476;8.484;2023-04-25T01:31:43;3.53;;;3.30;;
8958;SDS011;4514;49.476;8.484;2023-04-25T01:34:09;4.18;;;3.78;;
8958;SDS011;4514;49.476;8.484;2023-04-25T01:36:35;3.63;;;3.33;;
8958;SDS011;4514;49.476;8.484;2023-04-25T01:39:02;3.40;;;3.10;;
8958;SDS011;4514;49.476;8.484;2023-04-25T01:41:31;3.95;;;3.65;;
8958;SDS011;4514;49.476;8.484;2023-04-25T01:43:57;3.47;;;3.17;;
8958;SDS011;4514;49.476;8.484;2023-04-25T01:46:24;3.97;;;3.67;;
8958;SDS011;4514;49.476;8.484;2023-04-25T01:48:52;4.07;;;3.45;;
8958;SDS011;4514;49.476;8.484;2023-04-25T01:51:20;4.80;;;3.90;;
8958;SDS011;4514;49.476;8.484;2023-04-25T01:53:45;5.10;;;3.88;;
8958;SDS011;4514;49.476;8.484;2023-04-25T01:56:13;4.22;;;3.83;;
8958;SDS011;4514;49.476;8.484;2023-04-25T01:58:41;4.38;;;3.70;;
8958;SDS011;4514;49.476;8.484;2023-04-25T02:01:07;4.00;;;3.70;;
8958;SDS011;4514;49.476;8.484;2023-04-25T02:03:33;5.18;;;3.97;;
8958;SDS011;4514;49.476;8.484;2023-04-25T02:05:59;5.13;;;4.63;;
8958;SDS011;4514;49.476;8.484;2023-04-25T02:08:25;5.20;;;4.80;;
8958;SDS011;4514;49.476;8.484;2023-04-25T02:10:51;5.35;;;4.95;;
8958;SDS011;4514;49.476;8.484;2023-04-25T02:13:19;5.80;;;5.30;;
8958;SDS011;4514;49.476;8.484;2023-04-25T02:15:47;6.00;;;5.50;;
8958;SDS011;4514;49.476;8.484;2023-04-25T02:18:12;6.20;;;5.70;;
8958;SDS011;4514;49.476;8.484;2023-04-25T02:20:38;6.30;;;5.70;;
8958;SDS011;4514;49.476;8.484;2023-04-25T02:23:03;6.80;;;6.20;;
8958;SDS011;4514;49.476;8.484;2023-04-25T02:25:31;6.40;;;5.88;;
8958;SDS011;4514;49.476;8.484;2023-04-25T02:28:01;6.90;;;6.30;;
8958;SDS011;4514;49.476;8.484;2023-04-25T02:30:27;6.32;;;5.70;;
8958;SDS011;4514;49.476;8.484;2023-04-25T02:32:52;6.10;;;5.60;;
8958;SDS011;4514;49.476;8.484;2023-04-25T02:35:18;5.22;;;4.82;;
8958;SDS011;4514;49.476;8.484;2023-04-25T02:37:43;6.43;;;5.90;;
8958;SDS011;4514;49.476;8.484;2023-04-25T02:40:09;6.90;;;6.30;;
8958;SDS011;4514;49.476;8.484;2023-04-25T02:42:35;6.50;;;6.00;;
8958;SDS011;4514;49.476;8.484;2023-04-25T02:45:01;7.30;;;6.70;;
8958;SDS011;4514;49.476;8.484;2023-04-25T02:47:31;7.00;;;6.50;;
8958;SDS011;4514;49.476;8.484;2023-04-25T02:49:56;6.55;;;6.05;;
8958;SDS011;4514;49.476;8.484;2023-04-25T02:52:22;6.38;;;5.80;;
8958;SDS011;4514;49.476;8.484;2023-04-25T02:54:47;6.05;;;5.55;;
8958;SDS011;4514;49.476;8.484;2023-04-25T02:57:12;6.85;;;6.20;;
8958;SDS011;4514;49.476;8.484;2023-04-25T02:59:38;6.50;;;5.90;;
8958;SDS011;4514;49.476;8.484;2023-04-25T03:02:03;6.45;;;5.85;;
8958;SDS011;4514;49.476;8.484;2023-04-25T03:04:31;7.03;;;6.35;;
8958;SDS011;4514;49.476;8.484;2023-04-25T03:06:58;7.00;;;6.43;;
8958;SDS011;4514;49.476;8.484;2023-04-25T03:09:23;7.72;;;6.93;;
8958;SDS011;4514;49.476;8.484;2023-04-25T03:11:49;7.68;;;6.93;;
8958;SDS011;4514;49.476;8.484;2023-04-25T03:14:14;8.55;;;7.20;;
8958;SDS011;4514;49.476;8.484;2023-04-25T03:16:42;10.40;;;7.53;;
8958;SDS011;4514;49.476;8.484;2023-04-25T03:19:10;8.30;;;7.35;;
8958;SDS011;4514;49.476;8.484;2023-04-25T03:21:36;8.23;;;7.53;;
8958;SDS011;4514;49.476;8.484;2023-04-25T03:24:04;9.95;;;8.00;;
8958;SDS011;4514;49.476;8.484;2023-04-25T03:26:30;8.15;;;7.40;;
8958;SDS011;4514;49.476;8.484;2023-04-25T03:28:55;11.57;;;8.10;;
8958;SDS011;4514;49.476;8.484;2023-04-25T03:31:23;7.88;;;7.18;;
8958;SDS011;4514;49.476;8.484;2023-04-25T03:33:53;8.10;;;7.30;;
8958;SDS011;4514;49.476;8.484;2023-04-25T03:36:18;7.78;;;7.00;;
8958;SDS011;4514;49.476;8.484;2023-04-25T03:38:46;9.38;;;6.85;;
8958;SDS011;4514;49.476;8.484;2023-04-25T03:41:15;7.28;;;6.57;;
8958;SDS011;4514;49.476;8.484;2023-04-25T03:43:41;8.35;;;7.60;;
8958;SDS011;4514;49.476;8.484;2023-04-25T03:46:08;8.73;;;7.80;;
8958;SDS011;4514;49.476;8.484;2023-04-25T03:48:34;8.73;;;7.75;;
8958;SDS011;4514;49.476;8.484;2023-04-25T03:51:00;8.57;;;7.72;;
8958;SDS011;4514;49.476;8.484;2023-04-25T03:53:28;8.43;;;7.60;;
8958;SDS011;4514;49.476;8.484;2023-04-25T03:55:56;9.00;;;8.10;;
8958;SDS011;4514;49.476;8.484;2023-04-25T03:58:21;8.70;;;7.82;;
8958;SDS011;4514;49.476;8.484;2023-04-25T04:00:48;8.77;;;7.97;;
8958;SDS011;4514;49.476;8.484;2023-04-25T04:03:13;9.10;;;8.30;;
8958;SDS011;4514;49.476;8.484;2023-04-25T04:05:38;8.35;;;7.55;;
8958;SDS011;4514;49.476;8.484;2023-04-25T04:08:05;8.50;;;7.70;;
8958;SDS011;4514;49.476;8.484;2023-04-25T04:10:34;8.27;;;7.57;;
8958;SDS011;4514;49.476;8.484;2023-04-25T04:12:59;8.48;;;7.50;;
8958;SDS011;4514;49.476;8.484;2023-04-25T04:15:27;8.13;;;7.38;;
8958;SDS011;4514;49.476;8.484;2023-04-25T04:17:55;7.82;;;7.13;;
8958;SDS011;4514;49.476;8.484;2023-04-25T04:20:21;8.13;;;7.00;;
8958;SDS011;4514;49.476;8.484;2023-04-25T04:22:49;8.65;;;7.20;;
8958;SDS011;4514;49.476;8.484;2023-04-25T04:25:14;8.10;;;7.50;;
8958;SDS011;4514;49.476;8.484;2023-04-25T04:27:42;7.60;;;7.00;;
8958;SDS011;4514;49.476;8.484;2023-04-25T04:30:11;6.78;;;6.28;;
8958;SDS011;4514;49.476;8.484;2023-04-25T04:32:39;7.00;;;6.40;;
8958;SDS011;4514;49.476;8.484;2023-04-25T04:35:05;7.50;;;6.80;;
8958;SDS011;4514;49.476;8.484;2023-04-25T04:37:31;6.90;;;6.30;;
8958;SDS011;4514;49.476;8.484;2023-04-25T04:39:57;6.70;;;6.10;;
8958;SDS011;4514;49.476;8.484;2023-04-25T04:42:23;6.30;;;5.80;;
8958;SDS011;4514;49.476;8.484;2023-04-25T04:44:49;6.60;;;6.10;;
8958;SDS011;4514;49.476;8.484;2023-04-25T04:47:15;7.18;;;6.57;;
8958;SDS011;4514;49.476;8.484;2023-04-25T04:49:40;8.05;;;7.35;;
8958;SDS011;4514;49.476;8.484;2023-04-25T04:52:06;6.88;;;6.28;;
8958;SDS011;4514;49.476;8.484;2023-04-25T04:54:31;7.10;;;6.43;;
8958;SDS011;4514;49.476;8.484;2023-04-25T04:56:57;7.13;;;6.47;;
8958;SDS011;4514;49.476;8.484;2023-04-25T04:59:22;7.65;;;7.03;;
8958;SDS011;4514;49.476;8.484;2023-04-25T05:01:47;7.35;;;6.75;;
8958;SDS011;4514;49.476;8.484;2023-04-25T05:04:17;7.25;;;6.65;;
8958;SDS011;4514;49.476;8.484;2023-04-25T05:06:43;7.45;;;6.72;;
8958;SDS011;4514;49.476;8.484;2023-04-25T05:09:09;7.88;;;7.18;;
8958;SDS011;4514;49.476;8.484;2023-04-25T05:11:34;7.70;;;6.88;;
8958;SDS011;4514;49.476;8.484;2023-04-25T05:14:00;8.15;;;7.45;;
8958;SDS011;4514;49.476;8.484;2023-04-25T05:16:25;9.10;;;8.30;;
8958;SDS011;4514;49.476;8.484;2023-04-25T05:18:50;7.75;;;7.13;;
8958;SDS011;4514;49.476;8.484;2023-04-25T05:21:21;8.38;;;7.57;;
8958;SDS011;4514;49.476;8.484;2023-04-25T05:23:46;8.23;;;7.38;;
8958;SDS011;4514;49.476;8.484;2023-04-25T05:26:11;7.72;;;7.03;;
8958;SDS011;4514;49.476;8.484;2023-04-25T05:28:39;7.88;;;7.13;;
8958;SDS011;4514;49.476;8.484;2023-04-25T05:31:11;7.70;;;7.07;;
8958;SDS011;4514;49.476;8.484;2023-04-25T05:33:41;7.88;;;7.18;;
8958;SDS011;4514;49.476;8.484;2023-04-25T05:36:07;8.52;;;7.63;;
8958;SDS011;4514;49.476;8.484;2023-04-25T05:38:35;8.30;;;7.35;;
8958;SDS011;4514;49.476;8.484;2023-04-25T05:41:00;9.45;;;7.93;;
8958;SDS011;4514;49.476;8.484;2023-04-25T05:43:26;9.60;;;8.75;;
8958;SDS011;4514;49.476;8.484;2023-04-25T05:45:51;11.98;;;10.70;;
8958;SDS011;4514;49.476;8.484;2023-04-25T05:48:17;11.65;;;10.50;;
8958;SDS011;4514;49.476;8.484;2023-04-25T05:50:42;11.63;;;10.43;;
8958;SDS011;4514;49.476;8.484;2023-04-25T05:53:10;9.88;;;8.65;;
8958;SDS011;4514;49.476;8.484;2023-04-25T05:55:41;9.50;;;8.60;;
8958;SDS011;4514;49.476;8.484;2023-04-25T05:58:11;9.75;;;8.75;;
8958;SDS011;4514;49.476;8.484;2023-04-25T06:00:37;10.85;;;9.95;;
8958;SDS011;4514;49.476;8.484;2023-04-25T06:03:03;10.63;;;9.35;;
8958;SDS011;4514;49.476;8.484;2023-04-25T06:05:28;10.05;;;8.95;;
8958;SDS011;4514;49.476;8.484;2023-04-25T06:07:54;9.52;;;8.63;;
8958;SDS011;4514;49.476;8.484;2023-04-25T06:10:19;9.52;;;8.45;;
8958;SDS011;4514;49.476;8.484;2023-04-25T06:12:45;9.73;;;8.82;;
8958;SDS011;4514;49.476;8.484;2023-04-25T06:15:10;10.00;;;8.93;;
8958;SDS011;4514;49.476;8.484;2023-04-25T06:17:38;9.98;;;8.82;;
8958;SDS011;4514;49.476;8.484;2023-04-25T06:20:03;8.27;;;7.57;;
8958;SDS011;4514;49.476;8.484;2023-04-25T06:22:34;8.30;;;7.50;;
8958;SDS011;4514;49.476;8.484;2023-04-25T06:24:59;8.07;;;7.28;;
8958;SDS011;4514;49.476;8.484;2023-04-25T06:27:31;7.10;;;6.40;;
8958;SDS011;4514;49.476;8.484;2023-04-25T06:29:57;8.07;;;7.28;;
8958;SDS011;4514;49.476;8.484;2023-04-25T06:32:22;9.85;;;6.97;;
8958;SDS011;4514;49.476;8.484;2023-04-25T06:34:47;8.13;;;7.43;;
8958;SDS011;4514;49.476;8.484;2023-04-25T06:37:13;7.68;;;6.97;;
8958;SDS011;4514;49.476;8.484;2023-04-25T06:39:41;7.90;;;7.18;;
8958;SDS011;4514;49.476;8.484;2023-04-25T06:42:11;8.27;;;7.32;;
8958;SDS011;4514;49.476;8.484;2023-04-25T06:44:36;8.32;;;7.00;;
8958;SDS011;4514;49.476;8.484;2023-04-25T06:47:02;8.70;;;6.43;;
8958;SDS011;4514;49.476;8.484;2023-04-25T06:49:27;8.20;;;6.75;;
8958;SDS011;4514;49.476;8.484;2023-04-25T06:51:52;9.43;;;6.38;;
8958;SDS011;4514;49.476;8.484;2023-04-25T06:54:18;8.65;;;6.28;;
8958;SDS011;4514;49.476;8.484;2023-04-25T06:56:43;10.27;;;7.15;;
8958;SDS011;4514;49.476;8.484;2023-04-25T06:59:09;8.95;;;7.00;;
8958;SDS011;4514;49.476;8.484;2023-04-25T07:01:34;12.60;;;7.75;;
8958;SDS011;4514;49.476;8.484;2023-04-25T07:04:02;8.60;;;7.57;;
8958;SDS011;4514;49.476;8.484;2023-04-25T07:06:27;10.07;;;7.85;;
8958;SDS011;4514;49.476;8.484;2023-04-25T07:08:54;9.65;;;7.82;;
8958;SDS011;4514;49.476;8.484;2023-04-25T07:11:20;11.70;;;8.88;;
8958;SDS011;4514;49.476;8.484;2023-04-25T07:13:46;12.82;;;8.45;;
8958;SDS011;4514;49.476;8.484;2023-04-25T07:16:11;11.27;;;9.13;;
8958;SDS011;4514;49.476;8.484;2023-04-25T07:18:36;11.23;;;8.55;;
8958;SDS011;4514;49.476;8.484;2023-04-25T07:21:02;11.05;;;8.95;;
8958;SDS011;4514;49.476;8.484;2023-04-25T07:23:27;13.07;;;9.37;;
8958;SDS011;4514;49.476;8.484;2023-04-25T07:25:53;12.63;;;8.00;;
8958;SDS011;4514;49.476;8.484;2023-04-25T07:28:21;12.25;;;8.23;;
8958;SDS011;4514;49.476;8.484;2023-04-25T07:30:51;10.90;;;8.07;;
8958;SDS011;4514;49.476;8.484;2023-04-25T07:33:17;10.68;;;7.88;;
8958;SDS011;4514;49.476;8.484;2023-04-25T07:35:42;11.38;;;7.20;;
8958;SDS011;4514;49.476;8.484;2023-04-25T07:38:07;12.65;;;7.28;;
8958;SDS011;4514;49.476;8.484;2023-04-25T07:40:33;9.57;;;7.07;;
8958;SDS011;4514;49.476;8.484;2023-04-25T07:43:00;12.18;;;7.82;;
8958;SDS011;4514;49.476;8.484;2023-04-25T07:45:26;9.75;;;7.75;;
8958;SDS011;4514;49.476;8.484;2023-04-25T07:47:51;12.93;;;8.27;;
8958;SDS011;4514;49.476;8.484;2023-04-25T07:50:18;16.90;;;9.00;;
8958;SDS011;4514;49.476;8.484;2023-04-25T07:52:43;11.82;;;8.02;;
8958;SDS011;4514;49.476;8.484;2023-04-25T07:55:11;12.40;;;8.73;;
8958;SDS011;4514;49.476;8.484;2023-04-25T07:57:39;14.68;;;11.23;;
8958;SDS011;4514;49.476;8.484;2023-04-25T08:00:05;11.95;;;8.32;;
8958;SDS011;4514;49.476;8.484;2023-04-25T08:02:34;12.95;;;8.70;;
8958;SDS011;4514;49.476;8.484;2023-04-25T08:05:02;12.77;;;7.60;;
8958;SDS011;4514;49.476;8.484;2023-04-25T08:07:28;10.97;;;7.33;;
8958;SDS011;4514;49.476;8.484;2023-04-25T08:09:55;11.60;;;7.25;;
8958;SDS011;4514;49.476;8.484;2023-04-25T08:12:23;11.35;;;7.47;;
8958;SDS011;4514;49.476;8.484;2023-04-25T08:14:48;9.23;;;7.35;;
8958;SDS011;4514;49.476;8.484;2023-04-25T08:17:16;10.55;;;7.43;;
8958;SDS011;4514;49.476;8.484;2023-04-25T08:19:44;13.93;;;7.55;;
8958;SDS011;4514;49.476;8.484;2023-04-25T08:22:09;9.45;;;6.70;;
8958;SDS011;4514;49.476;8.484;2023-04-25T08:24:34;11.18;;;7.13;;
8958;SDS011;4514;49.476;8.484;2023-04-25T08:27:00;10.77;;;7.57;;
8958;SDS011;4514;49.476;8.484;2023-04-25T08:29:25;9.70;;;7.13;;
8958;SDS011;4514;49.476;8.484;2023-04-25T08:31:51;11.00;;;7.60;;
8958;SDS011;4514;49.476;8.484;2023-04-25T08:34:20;9.90;;;7.10;;
8958;SDS011;4514;49.476;8.484;2023-04-25T08:36:45;14.77;;;8.07;;
8958;SDS011;4514;49.476;8.484;2023-04-25T08:39:13;12.30;;;7.38;;
8958;SDS011;4514;49.476;8.484;2023-04-25T08:41:43;10.38;;;7.88;;
8958;SDS011;4514;49.476;8.484;2023-04-25T08:44:12;14.60;;;8.13;;
8958;SDS011;4514;49.476;8.484;2023-04-25T08:46:38;15.10;;;8.10;;
8958;SDS011;4514;49.476;8.484;2023-04-25T08:49:07;11.65;;;7.85;;
8958;SDS011;4514;49.476;8.484;2023-04-25T08:51:36;8.95;;;6.53;;
8958;SDS011;4514;49.476;8.484;2023-04-25T08:54:13;9.98;;;6.22;;
8958;SDS011;4514;49.476;8.484;2023-04-25T08:56:43;11.05;;;6.15;;
8958;SDS011;4514;49.476;8.484;2023-04-25T08:59:12;12.70;;;6.30;;
8958;SDS011;4514;49.476;8.484;2023-04-25T09:01:40;8.98;;;5.70;;
8958;SDS011;4514;49.476;8.484;2023-04-25T09:04:08;8.02;;;5.70;;
8958;SDS011;4514;49.476;8.484;2023-04-25T09:06:33;7.60;;;5.65;;
8958;SDS011;4514;49.476;8.484;2023-04-25T09:09:06;8.27;;;5.50;;
8958;SDS011;4514;49.476;8.484;2023-04-25T09:11:33;7.80;;;5.28;;
8958;SDS011;4514;49.476;8.484;2023-04-25T09:14:14;9.93;;;6.43;;
8958;SDS011;4514;49.476;8.484;2023-04-25T09:16:59;10.03;;;6.20;;
8958;SDS011;4514;49.476;8.484;2023-04-25T09:19:26;8.77;;;5.80;;
8958;SDS011;4514;49.476;8.484;2023-04-25T09:21:56;11.57;;;7.68;;
8958;SDS011;4514;49.476;8.484;2023-04-25T09:24:57;11.13;;;6.95;;
8958;SDS011;4514;49.476;8.484;2023-04-25T09:27:19;9.48;;;6.35;;
8958;SDS011;4514;49.476;8.484;2023-04-25T09:29:47;9.73;;;6.10;;
8958;SDS011;4514;49.476;8.484;2023-04-25T09:34:41;9.90;;;6.78;;
8958;SDS011;4514;49.476;8.484;2023-04-25T09:37:10;9.52;;;6.45;;
8958;SDS011;4514;49.476;8.484;2023-04-25T09:39:36;11.15;;;6.53;;
8958;SDS011;4514;49.476;8.484;2023-04-25T09:42:03;9.73;;;6.65;;
8958;SDS011;4514;49.476;8.484;2023-04-25T09:44:31;10.82;;;5.68;;
8958;SDS011;4514;49.476;8.484;2023-04-25T09:46:56;9.60;;;5.30;;
8958;SDS011;4514;49.476;8.484;2023-04-25T09:49:24;10.35;;;5.57;;
8958;SDS011;4514;49.476;8.484;2023-04-25T09:51:58;12.07;;;7.70;;
8958;SDS011;4514;49.476;8.484;2023-04-25T09:54:24;9.32;;;6.13;;
8958;SDS011;4514;49.476;8.484;2023-04-25T09:56:55;8.93;;;6.20;;
8958;SDS011;4514;49.476;8.484;2023-04-25T09:59:21;11.07;;;5.97;;
8958;SDS011;4514;49.476;8.484;2023-04-25T10:01:50;12.43;;;6.72;;
8958;SDS011;4514;49.476;8.484;2023-04-25T10:04:19;13.50;;;6.72;;
8958;SDS011;4514;49.476;8.484;2023-04-25T10:06:50;11.93;;;5.82;;
8958;SDS011;4514;49.476;8.484;2023-04-25T10:09:18;8.90;;;5.80;;
8958;SDS011;4514;49.476;8.484;2023-04-25T10:11:45;7.75;;;4.70;;
8958;SDS011;4514;49.476;8.484;2023-04-25T10:14:15;10.02;;;5.50;;
8958;SDS011;4514;49.476;8.484;2023-04-25T10:16:41;9.73;;;5.90;;
8958;SDS011;4514;49.476;8.484;2023-04-25T10:19:07;9.95;;;5.30;;
8958;SDS011;4514;49.476;8.484;2023-04-25T10:21:32;6.38;;;4.97;;
8958;SDS011;4514;49.476;8.484;2023-04-25T10:23:59;9.30;;;4.72;;
8958;SDS011;4514;49.476;8.484;2023-04-25T10:26:25;8.25;;;4.90;;
8958;SDS011;4514;49.476;8.484;2023-04-25T10:28:57;8.63;;;5.28;;
8958;SDS011;4514;49.476;8.484;2023-04-25T10:31:24;8.35;;;5.28;;
8958;SDS011;4514;49.476;8.484;2023-04-25T10:33:49;9.48;;;5.00;;
8958;SDS011;4514;49.476;8.484;2023-04-25T10:36:18;8.77;;;5.23;;
8958;SDS011;4514;49.476;8.484;2023-04-25T10:38:47;7.20;;;4.90;;
8958;SDS011;4514;49.476;8.484;2023-04-25T10:41:13;7.45;;;4.60;;
8958;SDS011;4514;49.476;8.484;2023-04-25T10:43:45;5.82;;;4.07;;
8958;SDS011;4514;49.476;8.484;2023-04-25T10:46:17;6.05;;;4.10;;
8958;SDS011;4514;49.476;8.484;2023-04-25T10:48:47;4.80;;;3.95;;
8958;SDS011;4514;49.476;8.484;2023-04-25T10:51:25;7.50;;;4.00;;
8958;SDS011;4514;49.476;8.484;2023-04-25T10:53:58;8.38;;;3.88;;
8958;SDS011;4514;49.476;8.484;2023-04-25T10:56:26;5.00;;;3.30;;
8958;SDS011;4514;49.476;8.484;2023-04-25T10:59:05;4.20;;;3.38;;
8958;SDS011;4514;49.476;8.484;2023-04-25T11:01:41;7.55;;;3.83;;
8958;SDS011;4514;49.476;8.484;2023-04-25T11:10:01;5.72;;;3.70;;
8958;SDS011;4514;49.476;8.484;2023-04-25T11:12:30;5.55;;;3.83;;
8958;SDS011;4514;49.476;8.484;2023-04-25T11:14:59;6.18;;;3.60;;
8958;SDS011;4514;49.476;8.484;2023-04-25T11:17:28;5.50;;;3.30;;
8958;SDS011;4514;49.476;8.484;2023-04-25T11:19:57;5.35;;;3.15;;
8958;SDS011;4514;49.476;8.484;2023-04-25T11:22:22;5.80;;;3.47;;
8958;SDS011;4514;49.476;8.484;2023-04-25T11:24:48;5.10;;;3.67;;
8958;SDS011;4514;49.476;8.484;2023-04-25T11:27:14;5.88;;;3.70;;
8958;SDS011;4514;49.476;8.484;2023-04-25T11:29:40;6.05;;;3.33;;
8958;SDS011;4514;49.476;8.484;2023-04-25T11:32:06;8.30;;;3.78;;
8958;SDS011;4514;49.476;8.484;2023-04-25T11:34:34;7.03;;;4.10;;
8958;SDS011;4514;49.476;8.484;2023-04-25T11:37:03;4.78;;;3.60;;
8958;SDS011;4514;49.476;8.484;2023-04-25T11:39:29;4.72;;;3.78;;
8958;SDS011;4514;49.476;8.484;2023-04-25T11:42:00;5.57;;;3.90;;
8958;SDS011;4514;49.476;8.484;2023-04-25T11:44:26;6.05;;;3.72;;
8958;SDS011;4514;49.476;8.484;2023-04-25T11:46:53;4.70;;;3.80;;
8958;SDS011;4514;49.476;8.484;2023-04-25T11:49:21;6.85;;;3.72;;
8958;SDS011;4514;49.476;8.484;2023-04-25T11:51:49;4.15;;;3.55;;
8958;SDS011;4514;49.476;8.484;2023-04-25T11:54:15;5.72;;;3.90;;
8958;SDS011;4514;49.476;8.484;2023-04-25T11:56:41;7.15;;;3.85;;
8958;SDS011;4514;49.476;8.484;2023-04-25T11:59:10;5.57;;;3.95;;
8958;SDS011;4514;49.476;8.484;2023-04-25T12:01:38;5.63;;;4.07;;
8958;SDS011;4514;49.476;8.484;2023-04-25T12:04:20;17.27;;;13.88;;
8958;SDS011;4514;49.476;8.484;2023-04-25T12:06:47;11.23;;;7.82;;
8958;SDS011;4514;49.476;8.484;2023-04-25T12:09:17;5.35;;;4.43;;
8958;SDS011;4514;49.476;8.484;2023-04-25T12:11:44;8.03;;;6.47;;
8958;SDS011;4514;49.476;8.484;2023-04-25T12:14:23;6.78;;;4.97;;
8958;SDS011;4514;49.476;8.484;2023-04-25T12:16:51;8.35;;;5.75;;
8958;SDS011;4514;49.476;8.484;2023-04-25T12:19:18;5.55;;;4.18;;
8958;SDS011;4514;49.476;8.484;2023-04-25T12:21:45;8.02;;;4.72;;
8958;SDS011;4514;49.476;8.484;2023-04-25T12:24:14;5.35;;;4.63;;
8958;SDS011;4514;49.476;8.484;2023-04-25T12:26:48;5.65;;;4.53;;
8958;SDS011;4514;49.476;8.484;2023-04-25T12:29:18;7.13;;;4.68;;
8958;SDS011;4514;49.476;8.484;2023-04-25T12:31:47;5.43;;;4.28;;
8958;SDS011;4514;49.476;8.484;2023-04-25T12:34:13;5.25;;;4.40;;
8958;SDS011;4514;49.476;8.484;2023-04-25T12:36:41;4.82;;;4.05;;
8958;SDS011;4514;49.476;8.484;2023-04-25T12:39:06;5.90;;;4.00;;
8958;SDS011;4514;49.476;8.484;2023-04-25T12:41:33;5.90;;;4.53;;
8958;SDS011;4514;49.476;8.484;2023-04-25T12:43:58;8.10;;;5.15;;
8958;SDS011;4514;49.476;8.484;2023-04-25T12:46:26;7.32;;;5.72;;
8958;SDS011;4514;49.476;8.484;2023-04-25T12:48:51;7.28;;;5.65;;
8958;SDS011;4514;49.476;8.484;2023-04-25T12:51:16;6.82;;;5.20;;
8958;SDS011;4514;49.476;8.484;2023-04-25T12:53:44;7.38;;;4.93;;
8958;SDS011;4514;49.476;8.484;2023-04-25T12:56:10;7.00;;;5.63;;
8958;SDS011;4514;49.476;8.484;2023-04-25T12:58:36;6.15;;;4.68;;
8958;SDS011;4514;49.476;8.484;2023-04-25T13:01:03;6.13;;;4.72;;
8958;SDS011;4514;49.476;8.484;2023-04-25T13:03:30;6.72;;;4.60;;
8958;SDS011;4514;49.476;8.484;2023-04-25T13:05:55;6.93;;;4.83;;
8958;SDS011;4514;49.476;8.484;2023-04-25T13:08:20;7.20;;;4.63;;
8958;SDS011;4514;49.476;8.484;2023-04-25T13:10:47;8.65;;;5.47;;
8958;SDS011;4514;49.476;8.484;2023-04-25T13:13:15;7.82;;;6.45;;
8958;SDS011;4514;49.476;8.484;2023-04-25T13:15:41;7.97;;;5.13;;
8958;SDS011;4514;49.476;8.484;2023-04-25T13:18:06;8.07;;;6.47;;
8958;SDS011;4514;49.476;8.484;2023-04-25T13:20:32;11.13;;;7.63;;
8958;SDS011;4514;49.476;8.484;2023-04-25T13:22:58;7.10;;;5.07;;
8958;SDS011;4514;49.476;8.484;2023-04-25T13:25:25;5.80;;;4.75;;
8958;SDS011;4514;49.476;8.484;2023-04-25T13:27:51;6.05;;;4.32;;
8958;SDS011;4514;49.476;8.484;2023-04-25T13:30:19;9.73;;;4.60;;
8958;SDS011;4514;49.476;8.484;2023-04-25T13:32:46;6.63;;;4.30;;
8958;SDS011;4514;49.476;8.484;2023-04-25T13:35:14;6.10;;;4.13;;
8958;SDS011;4514;49.476;8.484;2023-04-25T13:37:40;9.30;;;4.60;;
8958;SDS011;4514;49.476;8.484;2023-04-25T13:40:09;7.30;;;4.50;;
8958;SDS011;4514;49.476;8.484;2023-04-25T13:42:38;7.85;;;4.68;;
8958;SDS011;4514;49.476;8.484;2023-04-25T13:45:05;6.25;;;4.30;;
8958;SDS011;4514;49.476;8.484;2023-04-25T13:47:34;9.52;;;4.45;;
8958;SDS011;4514;49.476;8.484;2023-04-25T13:49:59;8.25;;;4.93;;
8958;SDS011;4514;49.476;8.484;2023-04-25T13:52:28;9.60;;;4.97;;
8958;SDS011;4514;49.476;8.484;2023-04-25T13:54:54;8.77;;;5.07;;
8958;SDS011;4514;49.476;8.484;2023-04-25T13:57:19;12.65;;;10.10;;
8958;SDS011;4514;49.476;8.484;2023-04-25T13:59:47;10.98;;;6.40;;
8958;SDS011;4514;49.476;8.484;2023-04-25T14:02:14;9.68;;;6.55;;
8958;SDS011;4514;49.476;8.484;2023-04-25T14:04:40;7.10;;;4.88;;
8958;SDS011;4514;49.476;8.484;2023-04-25T14:07:06;6.85;;;4.97;;
8958;SDS011;4514;49.476;8.484;2023-04-25T14:09:31;8.15;;;4.70;;
8958;SDS011;4514;49.476;8.484;2023-04-25T14:14:51;6.55;;;4.65;;
8958;SDS011;4514;49.476;8.484;2023-04-25T14:17:18;7.85;;;4.28;;
8958;SDS011;4514;49.476;8.484;2023-04-25T14:19:44;7.20;;;4.65;;
8958;SDS011;4514;49.476;8.484;2023-04-25T14:22:10;7.95;;;4.68;;
8958;SDS011;4514;49.476;8.484;2023-04-25T14:24:38;8.15;;;4.32;;
8958;SDS011;4514;49.476;8.484;2023-04-25T14:27:06;6.93;;;4.03;;
8958;SDS011;4514;49.476;8.484;2023-04-25T14:29:31;7.65;;;3.97;;
8958;SDS011;4514;49.476;8.484;2023-04-25T14:31:57;9.00;;;4.15;;
8958;SDS011;4514;49.476;8.484;2023-04-25T14:34:28;5.53;;;4.10;;
8958;SDS011;4514;49.476;8.484;2023-04-25T14:36:54;8.23;;;4.18;;
8958;SDS011;4514;49.476;8.484;2023-04-25T14:39:21;10.50;;;4.72;;
8958;SDS011;4514;49.476;8.484;2023-04-25T14:41:47;6.35;;;4.35;;
8958;SDS011;4514;49.476;8.484;2023-04-25T14:44:12;6.30;;;3.83;;
8958;SDS011;4514;49.476;8.484;2023-04-25T14:46:40;6.85;;;4.20;;
8958;SDS011;4514;49.476;8.484;2023-04-25T14:49:05;7.43;;;4.40;;
8958;SDS011;4514;49.476;8.484;2023-04-25T14:51:31;8.50;;;4.30;;
8958;SDS011;4514;49.476;8.484;2023-04-25T14:53:56;9.25;;;4.10;;
8958;SDS011;4514;49.476;8.484;2023-04-25T14:56:21;7.30;;;4.07;;
8958;SDS011;4514;49.476;8.484;2023-04-25T14:58:47;10.60;;;4.00;;
8958;SDS011;4514;49.476;8.484;2023-04-25T15:01:15;6.82;;;4.28;;
8958;SDS011;4514;49.476;8.484;2023-04-25T15:03:45;7.28;;;4.18;;
8958;SDS011;4514;49.476;8.484;2023-04-25T15:06:10;6.82;;;3.85;;
8958;SDS011;4514;49.476;8.484;2023-04-25T15:08:36;7.00;;;3.63;;
8958;SDS011;4514;49.476;8.484;2023-04-25T15:11:01;5.30;;;3.75;;
8958;SDS011;4514;49.476;8.484;2023-04-25T15:13:30;8.57;;;4.22;;
8958;SDS011;4514;49.476;8.484;2023-04-25T15:15:59;6.05;;;3.58;;
8958;SDS011;4514;49.476;8.484;2023-04-25T15:18:25;5.63;;;4.03;;
8958;SDS011;4514;49.476;8.484;2023-04-25T15:20:50;6.82;;;3.47;;
8958;SDS011;4514;49.476;8.484;2023-04-25T15:23:17;7.65;;;3.67;;